createdAt,value
2018-11-05T00:01:06.933Z,122.77
2018-11-05T00:03:36.207Z,126.90
2018-11-05T00:06:05.511Z,131.67
2018-11-05T00:08:35.139Z,125.40
2018-11-05T00:11:04.613Z,119.93
2018-11-05T00:13:34.113Z,125.80
2018-11-05T00:16:03.603Z,113.00
2018-11-05T00:18:33.352Z,125.30
2018-11-05T00:21:02.850Z,113.63
2018-11-05T00:23:32.174Z,115.93
2018-11-05T00:26:01.641Z,117.70
2018-11-05T00:28:31.056Z,117.20
2018-11-05T00:31:00.449Z,142.40
2018-11-05T00:33:29.889Z,125.45
2018-11-05T00:35:59.146Z,123.43
2018-11-05T00:38:28.431Z,131.70
2018-11-05T00:40:57.749Z,102.93
2018-11-05T00:43:26.895Z,125.07
2018-11-05T00:45:56.193Z,114.17
2018-11-05T00:48:25.460Z,132.50
2018-11-05T00:50:54.846Z,132.20
2018-11-05T00:53:24.085Z,125.70
2018-11-05T00:55:53.347Z,126.60
2018-11-05T00:58:22.976Z,131.57
2018-11-05T01:00:52.285Z,136.53
2018-11-05T01:03:21.648Z,149.07
2018-11-05T01:05:50.968Z,157.23
2018-11-05T01:08:20.164Z,151.37
2018-11-05T01:10:49.300Z,154.50
2018-11-05T01:13:18.790Z,151.73
2018-11-05T01:15:48.059Z,143.30
2018-11-05T01:18:17.264Z,126.97
2018-11-05T01:20:46.464Z,135.73
2018-11-05T01:23:16.080Z,148.30
2018-11-05T01:25:45.590Z,144.90
2018-11-05T01:28:15.078Z,143.20
2018-11-05T01:30:44.407Z,145.50
2018-11-05T01:33:13.889Z,155.20
2018-11-05T01:35:43.301Z,153.17
2018-11-05T01:38:12.837Z,145.90
2018-11-05T01:40:42.196Z,156.37
2018-11-05T01:43:11.340Z,156.17
2018-11-05T01:45:40.614Z,156.63
2018-11-05T01:48:09.738Z,154.10
2018-11-05T01:50:39.405Z,157.70
2018-11-05T01:53:08.951Z,159.50
2018-11-05T01:55:38.424Z,155.77
2018-11-05T01:58:07.824Z,153.87
2018-11-05T02:00:37.313Z,161.33
2018-11-05T02:03:06.843Z,160.20
2018-11-05T02:05:36.118Z,147.73
2018-11-05T02:08:05.547Z,157.87
2018-11-05T02:10:34.930Z,149.27
2018-11-05T02:13:04.702Z,150.73
2018-11-05T02:15:33.956Z,160.43
2018-11-05T02:18:03.259Z,156.77
2018-11-05T02:20:32.755Z,151.60
2018-11-05T02:23:01.902Z,164.50
2018-11-05T02:25:31.149Z,164.33
2018-11-05T02:28:00.566Z,164.23
2018-11-05T02:30:30.088Z,166.43
2018-11-05T02:32:59.329Z,171.90
2018-11-05T02:35:28.907Z,169.63
2018-11-05T02:37:58.215Z,155.87
2018-11-05T02:40:27.688Z,174.97
2018-11-05T02:42:57.093Z,152.57
2018-11-05T02:45:26.338Z,186.93
2018-11-05T02:47:55.676Z,182.37
2018-11-05T02:50:25.114Z,162.67
2018-11-05T02:52:54.622Z,178.17
2018-11-05T02:55:23.897Z,199.87
2018-11-05T02:57:53.529Z,205.57
2018-11-05T03:00:23.005Z,208.60
2018-11-05T03:02:52.153Z,191.65
2018-11-05T03:05:21.503Z,192.40
2018-11-05T03:07:50.956Z,188.90
2018-11-05T03:10:20.545Z,191.50
2018-11-05T03:12:50.116Z,188.10
2018-11-05T03:15:19.855Z,176.33
2018-11-05T03:17:49.542Z,190.47
2018-11-05T03:20:18.943Z,164.93
2018-11-05T03:22:48.368Z,175.73
2018-11-05T03:25:17.681Z,180.90
2018-11-05T03:27:46.949Z,168.80
2018-11-05T03:30:19.909Z,185.33
2018-11-05T03:32:49.133Z,169.03
2018-11-05T03:35:18.860Z,177.50
2018-11-05T03:37:48.217Z,180.85
2018-11-05T03:40:17.445Z,191.20
2018-11-05T03:42:46.610Z,164.53
2018-11-05T03:45:16.906Z,166.07
2018-11-05T03:47:46.482Z,172.77
2018-11-05T03:50:19.271Z,184.07
2018-11-05T03:52:48.904Z,175.43
2018-11-05T03:55:18.891Z,146.13
2018-11-05T03:57:48.176Z,175.83
2018-11-05T04:00:18.637Z,171.50
2018-11-05T04:02:48.343Z,173.13
2018-11-05T04:05:17.722Z,166.23
2018-11-05T04:07:47.051Z,163.40
2018-11-05T04:10:16.762Z,148.00
2018-11-05T04:12:46.444Z,161.50
2018-11-05T04:15:15.847Z,166.47
2018-11-05T04:17:45.070Z,149.80
2018-11-05T04:20:15.170Z,156.40
2018-11-05T04:22:45.218Z,145.27
2018-11-05T04:25:14.695Z,146.30
2018-11-05T04:27:44.341Z,160.43
2018-11-05T04:30:16.951Z,147.03
2018-11-05T04:32:46.385Z,136.60
2018-11-05T04:35:15.804Z,154.70
2018-11-05T04:37:45.210Z,171.43
2018-11-05T04:40:14.418Z,160.13
2018-11-05T04:42:43.702Z,165.40
2018-11-05T04:45:13.936Z,151.90
2018-11-05T04:47:43.948Z,165.73
2018-11-05T04:50:14.169Z,170.30
2018-11-05T04:52:44.500Z,170.53
2018-11-05T04:55:13.784Z,156.27
2018-11-05T04:57:43.223Z,160.07
2018-11-05T05:00:17.111Z,191.70
2018-11-05T05:02:46.510Z,174.87
2018-11-05T05:05:16.619Z,184.70
2018-11-05T05:07:46.075Z,193.93
2018-11-05T05:10:15.533Z,157.30
2018-11-05T05:12:44.946Z,190.63
2018-11-05T05:15:14.405Z,186.20
2018-11-05T05:17:45.836Z,193.40
2018-11-05T05:20:16.629Z,195.10
2018-11-05T05:22:46.029Z,183.57
2018-11-05T05:25:15.679Z,168.20
2018-11-05T05:27:45.132Z,201.87
2018-11-05T05:30:19.035Z,189.87
2018-11-05T05:32:49.298Z,179.10
2018-11-05T05:35:19.505Z,215.28
2018-11-05T05:37:48.824Z,201.60
2018-11-05T05:40:17.949Z,165.13
2018-11-05T05:42:47.186Z,196.63
2018-11-05T05:45:16.642Z,181.60
2018-11-05T05:47:45.987Z,195.83
2018-11-05T05:50:16.586Z,185.47
2018-11-05T05:52:47.441Z,187.00
2018-11-05T05:55:16.979Z,168.60
2018-11-05T05:57:46.369Z,176.40
2018-11-05T06:00:16.937Z,202.93
2018-11-05T06:02:46.222Z,186.20
2018-11-05T06:05:15.913Z,179.83
2018-11-05T06:07:45.114Z,172.87
2018-11-05T06:10:15.439Z,188.37
2018-11-05T06:12:44.963Z,146.90
2018-11-05T06:15:15.671Z,168.57
2018-11-05T06:17:45.099Z,155.53
2018-11-05T06:20:16.447Z,171.00
2018-11-05T06:22:46.610Z,205.07
2018-11-05T06:25:15.907Z,144.07
2018-11-05T06:27:45.706Z,157.87
2018-11-05T06:30:17.045Z,164.87
2018-11-05T06:32:47.241Z,216.17
2018-11-05T06:35:16.705Z,153.77
2018-11-05T06:37:45.954Z,153.97
2018-11-05T06:40:16.728Z,149.47
2018-11-05T06:42:46.298Z,158.53
2018-11-05T06:45:16.825Z,175.83
2018-11-05T06:47:46.728Z,181.80
2018-11-05T06:50:18.308Z,167.97
2018-11-05T06:52:47.863Z,144.17
2018-11-05T06:55:17.287Z,151.33
2018-11-05T06:57:46.864Z,179.83
2018-11-05T07:00:26.389Z,144.90
2018-11-05T07:02:55.755Z,117.17
2018-11-05T07:05:25.162Z,147.20
2018-11-05T07:07:54.790Z,130.70
2018-11-05T07:10:24.248Z,152.20
2018-11-05T07:12:53.393Z,161.73
2018-11-05T07:15:22.653Z,151.23
2018-11-05T07:17:51.786Z,151.30
2018-11-05T07:20:22.071Z,162.10
2018-11-05T07:22:52.232Z,140.20
2018-11-05T07:25:21.763Z,170.23
2018-11-05T07:27:51.324Z,159.83
2018-11-05T07:30:21.712Z,159.83
2018-11-05T07:32:52.370Z,161.43
2018-11-05T07:35:21.522Z,159.50
2018-11-05T07:37:51.148Z,177.10
2018-11-05T07:40:21.003Z,195.50
2018-11-05T07:42:50.303Z,230.83
2018-11-05T07:45:23.810Z,158.80
2018-11-05T07:47:53.186Z,207.83
2018-11-05T07:50:23.223Z,197.37
2018-11-05T07:52:53.039Z,184.03
2018-11-05T07:55:22.829Z,188.67
2018-11-05T07:57:52.536Z,189.03
2018-11-05T08:00:39.784Z,177.43
2018-11-05T08:03:09.273Z,182.22
2018-11-05T08:05:38.794Z,180.53
2018-11-05T08:08:08.223Z,177.23
2018-11-05T08:10:37.789Z,178.40
2018-11-05T08:13:07.289Z,182.97
2018-11-05T08:15:37.079Z,171.67
2018-11-05T08:18:06.507Z,176.97
2018-11-05T08:20:35.712Z,165.47
2018-11-05T08:23:05.235Z,156.00
2018-11-05T08:25:34.625Z,156.37
2018-11-05T08:28:03.737Z,165.43
2018-11-05T08:30:32.873Z,174.07
2018-11-05T08:33:02.036Z,177.57
2018-11-05T08:35:33.988Z,173.17
2018-11-05T08:38:03.412Z,162.13
2018-11-05T08:40:32.687Z,201.25
2018-11-05T08:43:01.991Z,170.37
2018-11-05T08:45:31.504Z,161.00
2018-11-05T08:48:00.825Z,143.50
2018-11-05T08:50:30.225Z,154.03
2018-11-05T08:52:59.500Z,157.27
2018-11-05T08:55:29.330Z,194.87
2018-11-05T08:57:58.905Z,172.43
2018-11-05T09:00:45.850Z,153.53
2018-11-05T09:03:15.568Z,149.17
2018-11-05T09:05:45.159Z,139.63
2018-11-05T09:08:15.077Z,147.83
2018-11-05T09:10:44.787Z,143.50
2018-11-05T09:13:13.750Z,154.03
2018-11-05T09:15:42.894Z,146.10
2018-11-05T09:18:12.493Z,159.97
2018-11-05T09:20:41.908Z,149.20
2018-11-05T09:23:11.698Z,163.70
2018-11-05T09:25:41.286Z,146.07
2018-11-05T09:28:10.696Z,154.97
2018-11-05T09:30:40.092Z,169.37
2018-11-05T09:33:09.694Z,164.37
2018-11-05T09:35:38.841Z,150.37
2018-11-05T09:38:08.145Z,147.97
2018-11-05T09:40:37.800Z,162.63
2018-11-05T09:43:07.535Z,147.23
2018-11-05T09:45:36.849Z,135.22
2018-11-05T09:48:06.246Z,145.67
2018-11-05T09:50:35.462Z,146.43
2018-11-05T09:53:04.842Z,144.97
2018-11-05T09:55:34.207Z,148.20
2018-11-05T09:58:03.530Z,140.30
2018-11-05T10:00:32.848Z,147.30
2018-11-05T10:03:03.427Z,131.67
2018-11-05T10:05:32.796Z,139.23
2018-11-05T10:08:03.701Z,137.73
2018-11-05T10:10:33.124Z,148.43
2018-11-05T10:13:02.818Z,142.70
2018-11-05T10:15:32.120Z,140.47
2018-11-05T10:18:01.263Z,157.60
2018-11-05T10:20:30.818Z,167.50
2018-11-05T10:23:00.141Z,141.70
2018-11-05T10:25:29.466Z,150.37
2018-11-05T10:28:05.929Z,152.80
2018-11-05T10:30:35.301Z,155.10
2018-11-05T10:33:04.733Z,140.23
2018-11-05T10:35:51.919Z,156.02
2018-11-05T10:38:21.374Z,136.07
2018-11-05T10:40:50.624Z,144.47
2018-11-05T10:43:20.151Z,123.30
2018-11-05T10:45:49.548Z,107.57
2018-11-05T10:48:18.849Z,129.17
2018-11-05T10:50:48.096Z,139.93
2018-11-05T10:53:17.431Z,134.03
2018-11-05T10:55:47.165Z,135.60
2018-11-05T10:58:16.658Z,139.90
2018-11-05T11:01:16.503Z,147.33
2018-11-05T11:04:03.823Z,141.53
2018-11-05T11:06:32.990Z,129.23
2018-11-05T11:09:02.410Z,136.83
2018-11-05T11:11:31.663Z,149.10
2018-11-05T11:14:00.813Z,138.17
2018-11-05T11:16:30.219Z,144.97
2018-11-05T11:18:59.614Z,140.90
2018-11-05T11:21:29.000Z,146.60
2018-11-05T11:23:58.425Z,141.23
2018-11-05T11:26:27.946Z,130.80
2018-11-05T11:28:57.200Z,138.83
2018-11-05T11:31:26.322Z,130.73
2018-11-05T11:33:55.750Z,148.10
2018-11-05T11:36:25.248Z,140.20
2018-11-05T11:38:54.429Z,140.73
2018-11-05T11:41:23.909Z,152.27
2018-11-05T11:43:53.793Z,157.23
2018-11-05T11:46:23.025Z,141.37
2018-11-05T11:48:52.664Z,132.53
2018-11-05T11:51:21.957Z,144.43
2018-11-05T11:53:51.395Z,138.70
2018-11-05T11:56:20.901Z,134.57
2018-11-05T11:58:50.112Z,138.40
2018-11-05T12:01:19.998Z,139.77
2018-11-05T12:03:49.385Z,134.30
2018-11-05T12:06:18.884Z,128.90
2018-11-05T12:08:48.059Z,119.33
2018-11-05T12:11:17.466Z,128.70
2018-11-05T12:13:46.903Z,126.03
2018-11-05T12:16:16.310Z,132.67
2018-11-05T12:18:45.829Z,118.43
2018-11-05T12:21:15.001Z,118.43
2018-11-05T12:23:44.394Z,118.80
2018-11-05T12:26:13.929Z,117.97
2018-11-05T12:28:43.224Z,116.53
2018-11-05T12:31:12.606Z,130.43
2018-11-05T12:33:42.039Z,115.97
2018-11-05T12:36:11.741Z,124.83
2018-11-05T12:38:41.211Z,122.47
2018-11-05T12:41:10.450Z,118.57
2018-11-05T12:43:39.838Z,124.23
2018-11-05T12:46:09.345Z,119.33
2018-11-05T12:48:38.683Z,117.90
2018-11-05T12:51:08.160Z,111.60
2018-11-05T12:53:37.520Z,122.03
2018-11-05T12:56:07.180Z,104.27
2018-11-05T12:58:36.459Z,104.83
2018-11-05T13:01:05.774Z,101.60
2018-11-05T13:03:35.066Z,100.37
2018-11-05T13:06:04.472Z,107.30
2018-11-05T13:08:33.948Z,97.00
2018-11-05T13:11:03.395Z,96.13
2018-11-05T13:13:32.802Z,91.63
2018-11-05T13:16:03.208Z,95.33
2018-11-05T13:18:32.609Z,97.33
2018-11-05T13:21:01.910Z,94.30
2018-11-05T13:23:56.324Z,87.77
2018-11-05T13:26:25.725Z,93.30
2018-11-05T13:28:55.307Z,83.70
2018-11-05T13:31:24.480Z,78.20
2018-11-05T13:33:54.008Z,75.33
2018-11-05T13:36:23.403Z,75.03
2018-11-05T13:38:52.719Z,79.10
2018-11-05T13:41:21.843Z,75.50
2018-11-05T13:43:51.349Z,78.55
2018-11-05T13:46:20.963Z,73.13
2018-11-05T13:48:50.862Z,71.40
2018-11-05T13:51:19.548Z,74.87
2018-11-05T13:53:48.958Z,68.00
2018-11-05T13:56:18.219Z,68.03
2018-11-05T13:58:47.564Z,66.45
2018-11-05T14:01:16.841Z,65.73
2018-11-05T14:03:46.342Z,64.67
2018-11-05T14:06:15.724Z,65.80
2018-11-05T14:08:45.344Z,58.57
2018-11-05T14:11:14.659Z,58.60
2018-11-05T14:13:44.041Z,55.67
2018-11-05T14:16:13.361Z,57.47
2018-11-05T14:18:42.885Z,51.70
2018-11-05T14:21:12.461Z,55.97
2018-11-05T14:23:41.774Z,50.37
2018-11-05T14:26:11.170Z,56.07
2018-11-05T14:28:40.893Z,51.13
2018-11-05T14:31:09.981Z,49.33
2018-11-05T14:33:39.527Z,50.90
2018-11-05T14:36:09.089Z,51.87
2018-11-05T14:38:38.430Z,47.70
2018-11-05T14:41:07.900Z,51.03
2018-11-05T14:43:37.359Z,42.87
2018-11-05T14:46:06.629Z,50.37
2018-11-05T14:48:36.219Z,48.73
2018-11-05T14:51:05.523Z,45.27
2018-11-05T14:53:35.019Z,47.13
2018-11-05T14:56:04.524Z,46.07
2018-11-05T14:58:34.048Z,43.33
2018-11-05T15:01:03.554Z,47.27
2018-11-05T15:03:32.940Z,49.53
2018-11-05T15:06:02.284Z,44.33
2018-11-05T15:08:31.646Z,50.63
2018-11-05T15:11:01.150Z,43.63
2018-11-05T15:13:30.646Z,42.93
2018-11-05T15:15:59.880Z,43.47
2018-11-05T15:18:29.476Z,45.27
2018-11-05T15:20:59.044Z,49.60
2018-11-05T15:23:28.475Z,44.00
2018-11-05T15:25:57.736Z,44.40
2018-11-05T15:28:27.074Z,50.13
2018-11-05T15:30:56.404Z,48.97
2018-11-05T15:33:25.625Z,43.47
2018-11-05T15:35:54.882Z,46.03
2018-11-05T15:38:26.121Z,47.00
2018-11-05T15:40:55.526Z,51.67
2018-11-05T15:43:24.729Z,47.70
2018-11-05T15:45:54.026Z,44.90
2018-11-05T15:48:23.198Z,54.87
2018-11-05T15:50:52.995Z,45.63
2018-11-05T15:53:22.869Z,53.37
2018-11-05T15:55:51.850Z,50.77
2018-11-05T15:58:21.131Z,49.00
2018-11-05T16:00:50.474Z,49.43
2018-11-05T16:03:20.036Z,48.10
2018-11-05T16:05:49.249Z,49.70
2018-11-05T16:08:18.967Z,51.67
2018-11-05T16:10:48.456Z,47.67
2018-11-05T16:13:17.757Z,46.53
2018-11-05T16:15:47.201Z,47.83
2018-11-05T16:18:16.782Z,46.50
2018-11-05T16:20:46.197Z,49.83
2018-11-05T16:23:15.697Z,48.20
2018-11-05T16:25:47.115Z,48.07
2018-11-05T16:28:16.794Z,46.87
2018-11-05T16:30:46.326Z,47.67
2018-11-05T16:33:15.658Z,48.47
2018-11-05T16:35:45.045Z,48.53
2018-11-05T16:38:14.544Z,52.17
2018-11-05T16:40:43.763Z,47.97
2018-11-05T16:43:12.976Z,46.73
2018-11-05T16:45:42.372Z,44.87
2018-11-05T16:48:11.673Z,47.13
2018-11-05T16:50:41.153Z,46.43
2018-11-05T16:53:10.718Z,63.33
2018-11-05T16:55:40.012Z,79.07
2018-11-05T16:58:09.615Z,44.47
2018-11-05T17:00:39.075Z,46.90
2018-11-05T17:03:08.693Z,52.37
2018-11-05T17:05:38.106Z,45.33
2018-11-05T17:08:07.445Z,51.17
2018-11-05T17:10:36.815Z,54.10
2018-11-05T17:13:06.601Z,49.20
2018-11-05T17:15:35.662Z,46.43
2018-11-05T17:18:05.290Z,48.57
2018-11-05T17:20:34.659Z,48.17
2018-11-05T17:23:03.977Z,56.40
2018-11-05T17:25:33.700Z,51.47
2018-11-05T17:28:03.033Z,48.00
2018-11-05T17:30:32.476Z,48.60
2018-11-05T17:33:01.994Z,51.03
2018-11-05T17:35:31.454Z,52.77
2018-11-05T17:38:00.968Z,52.55
2018-11-05T17:40:30.348Z,49.10
2018-11-05T17:42:59.764Z,48.47
2018-11-05T17:45:29.188Z,47.23
2018-11-05T17:47:58.729Z,49.47
2018-11-05T17:50:28.063Z,52.57
2018-11-05T17:52:57.309Z,57.80
2018-11-05T17:55:26.584Z,50.60
2018-11-05T17:57:56.172Z,49.87
2018-11-05T18:00:25.619Z,48.93
2018-11-05T18:02:54.899Z,60.40
2018-11-05T18:05:24.087Z,54.53
2018-11-05T18:07:53.425Z,56.93
2018-11-05T18:10:22.688Z,59.27
2018-11-05T18:12:52.107Z,62.17
2018-11-05T18:15:21.550Z,91.35
2018-11-05T18:17:53.075Z,85.47
2018-11-05T18:20:22.566Z,68.97
2018-11-05T18:22:51.906Z,69.17
2018-11-05T18:25:21.593Z,69.83
2018-11-05T18:27:51.110Z,73.50
2018-11-05T18:30:20.892Z,79.22
2018-11-05T18:32:50.292Z,81.55
2018-11-05T18:35:19.736Z,78.20
2018-11-05T18:37:50.650Z,85.97
2018-11-05T18:40:20.029Z,78.00
2018-11-05T18:42:49.448Z,83.17
2018-11-05T18:45:18.937Z,78.50
2018-11-05T18:47:48.250Z,78.63
2018-11-05T18:50:17.927Z,77.80
2018-11-05T18:52:47.305Z,81.50
2018-11-05T18:55:17.640Z,81.47
2018-11-05T18:57:46.882Z,118.50
2018-11-05T19:00:27.715Z,82.30
2018-11-05T19:02:58.138Z,72.33
2018-11-05T19:05:28.876Z,79.00
2018-11-05T19:07:58.347Z,72.77
2018-11-05T19:10:27.725Z,74.92
2018-11-05T19:12:59.590Z,73.77
2018-11-05T19:15:28.989Z,75.77
2018-11-05T19:17:58.608Z,78.53
2018-11-05T19:20:28.007Z,79.67
2018-11-05T19:22:57.605Z,73.60
2018-11-05T19:25:26.788Z,78.40
2018-11-05T19:27:56.013Z,76.33
2018-11-05T19:30:26.928Z,78.50
2018-11-05T19:32:56.141Z,85.33
2018-11-05T19:35:25.670Z,76.20
2018-11-05T19:37:55.054Z,63.93
2018-11-05T19:40:24.544Z,60.17
2018-11-05T19:42:54.108Z,61.40
2018-11-05T19:45:24.040Z,48.73
2018-11-05T19:47:53.302Z,73.50
2018-11-05T19:50:23.999Z,80.40
2018-11-05T19:52:53.913Z,105.73
2018-11-05T19:55:23.244Z,80.40
2018-11-05T19:57:53.476Z,69.23
2018-11-05T20:00:30.608Z,67.80
2018-11-05T20:03:01.189Z,56.23
2018-11-05T20:05:31.295Z,75.67
2018-11-05T20:08:03.383Z,77.77
2018-11-05T20:10:33.072Z,73.00
2018-11-05T20:13:02.469Z,84.23
2018-11-05T20:15:31.901Z,87.63
2018-11-05T20:18:01.195Z,83.17
2018-11-05T20:20:30.928Z,77.17
2018-11-05T20:23:00.477Z,89.00
2018-11-05T20:25:29.794Z,83.67
2018-11-05T20:27:59.315Z,72.50
2018-11-05T20:30:29.172Z,82.45
2018-11-05T20:33:00.024Z,89.03
2018-11-05T20:35:29.143Z,77.67
2018-11-05T20:38:00.812Z,77.83
2018-11-05T20:40:32.457Z,90.37
2018-11-05T20:43:04.550Z,89.00
2018-11-05T20:45:33.931Z,77.80
2018-11-05T20:48:03.333Z,188.63
2018-11-05T20:50:33.794Z,90.60
2018-11-05T20:53:03.366Z,89.60
2018-11-05T20:55:32.667Z,91.20
2018-11-05T20:58:02.070Z,80.67
2018-11-05T21:00:31.417Z,83.80
2018-11-05T21:03:00.792Z,81.67
2018-11-05T21:05:30.103Z,80.67
2018-11-05T21:07:59.599Z,83.13
2018-11-05T21:10:29.918Z,85.87
2018-11-05T21:12:59.104Z,83.13
2018-11-05T21:15:28.534Z,80.60
2018-11-05T21:17:57.920Z,77.07
2018-11-05T21:20:30.297Z,82.23
2018-11-05T21:22:59.752Z,85.57
2018-11-05T21:25:29.011Z,79.30
2018-11-05T21:27:58.492Z,87.77
2018-11-05T21:30:27.821Z,83.60
2018-11-05T21:32:57.227Z,83.20
2018-11-05T21:35:26.695Z,79.13
2018-11-05T21:37:55.925Z,78.60
2018-11-05T21:40:25.379Z,81.47
2018-11-05T21:42:54.725Z,82.33
2018-11-05T21:45:24.239Z,110.60
2018-11-05T21:47:53.491Z,89.47
2018-11-05T21:50:22.797Z,82.27
2018-11-05T21:52:52.239Z,83.97
2018-11-05T21:55:21.544Z,77.73
2018-11-05T21:57:51.071Z,81.20
2018-11-05T22:00:22.607Z,88.85
2018-11-05T22:02:59.450Z,83.70
2018-11-05T22:05:28.873Z,82.63
2018-11-05T22:08:00.092Z,74.47
2018-11-05T22:10:29.422Z,87.00
2018-11-05T22:12:58.754Z,83.90
2018-11-05T22:15:46.961Z,87.87
2018-11-05T22:18:17.196Z,94.73
2018-11-05T22:20:46.575Z,84.67
2018-11-05T22:23:16.377Z,86.97
2018-11-05T22:25:45.686Z,85.67
2018-11-05T22:28:14.881Z,92.73
2018-11-05T22:30:44.041Z,100.65
2018-11-05T22:33:13.218Z,88.17
2018-11-05T22:35:42.514Z,89.43
2018-11-05T22:38:14.695Z,91.40
2018-11-05T22:40:45.008Z,92.67
2018-11-05T22:43:14.164Z,87.90
2018-11-05T22:45:43.452Z,94.17
2018-11-05T22:48:12.600Z,87.27
2018-11-05T22:50:41.863Z,86.77
2018-11-05T22:53:11.199Z,93.40
2018-11-05T22:55:40.686Z,84.97
2018-11-05T22:58:10.136Z,88.70
2018-11-05T23:00:57.405Z,92.67
2018-11-05T23:03:30.660Z,84.23
2018-11-05T23:06:00.288Z,90.63
2018-11-05T23:08:29.745Z,89.47
2018-11-05T23:10:59.098Z,91.30
2018-11-05T23:13:28.624Z,98.00
2018-11-05T23:16:05.668Z,100.90
2018-11-05T23:18:35.337Z,89.83
2018-11-05T23:21:04.613Z,90.10
2018-11-05T23:23:33.977Z,88.10
2018-11-05T23:26:03.184Z,91.67
2018-11-05T23:28:32.550Z,95.93
2018-11-05T23:31:01.933Z,91.97
2018-11-05T23:33:31.481Z,95.93
2018-11-05T23:36:01.177Z,82.67
2018-11-05T23:38:30.568Z,96.47
2018-11-05T23:40:59.840Z,86.00
2018-11-05T23:43:29.294Z,87.50
2018-11-05T23:45:58.571Z,86.00
2018-11-05T23:48:28.343Z,97.97
2018-11-05T23:50:57.525Z,78.27
2018-11-05T23:53:26.821Z,80.00
2018-11-05T23:56:01.070Z,94.17
2018-11-05T23:58:30.771Z,91.43
